Portada
METAR-TAF:

METAR-TAF

Aeropuertos :

Aeropuerto de Milán-Linate

Milán, Italia

latitud: 45-26N, longitud: 009-17E, altitud: 107 m

Observación

El informe se hizo hace 13 minutos, a las 21:50 UTC
Viento 2 kt con dirección variable
Temperatura 3°C
Humedad 100%
Presión 1011 hPa
Visibilidad: 1700 m
Cielo nuboso a una altura de 400 ft
lluvia ligera, neblina

METAR: LIML 212150Z VRB02KT 1700 -RA BR BKN004 03/03 Q1011 NOSIG

Hora: 23:03 (22:03 UTC)

Pronóstico

El informe se hizo hace 5 horas y 3 minutos, a las 17:00 UTC
Pronóstico válido del 21 a las 18 UTC al 22 a las 18 UTC
Viento 3 kt con dirección variable
Visibilidad: 2000 m
Cielo nuboso a una altura de 1000 ft
neblina
Temporalmente
del 21 a las 18 UTC al 22 a las 08 UTC
Visibilidad: 1200 m
llovizna

TAF: LIML 211700Z 2118/2218 VRB03KT 2000 BR BKN010 TEMPO 2118/2208 1200 DZ

Observaciones y pronósticos meteorológicos de más de 4000 aeropuertos (mensajes METAR y TAF).

Los puntos amarillos y rojos representan las estaciones disponibles.

Ponga el ratón en el punto deseado para ver el nombre de la estación.

Haga clic para ver las observaciones y los pronósticos meteorológicos.

Para cambiar el mapa : haga clic en los botones verdes con una cruz de color negro para hacer un zoom, en el botón verde con un guión para alejar o en las flechas verdes para mapas adyacentes.


METAR-TAF: